sensor_id;sensor_type;location;lat;lon;timestamp;P1;durP1;ratioP1;P2;durP2;ratioP2
20824;SDS011;10573;50.936;6.978;2023-04-23T03:27:51;33.57;;;20.03;;
20824;SDS011;10573;50.936;6.978;2023-04-23T03:30:17;38.00;;;25.77;;
20824;SDS011;10573;50.936;6.978;2023-04-23T03:32:42;39.60;;;26.58;;
20824;SDS011;10573;50.936;6.978;2023-04-23T03:35:08;39.03;;;26.00;;
20824;SDS011;10573;50.936;6.978;2023-04-23T03:37:33;37.73;;;26.57;;
20824;SDS011;10573;50.936;6.978;2023-04-23T03:39:59;38.08;;;26.27;;
20824;SDS011;10573;50.936;6.978;2023-04-23T03:42:27;39.17;;;26.50;;
20824;SDS011;10573;50.936;6.978;2023-04-23T03:44:53;38.73;;;26.73;;
20824;SDS011;10573;50.936;6.978;2023-04-23T03:47:18;39.97;;;27.15;;
20824;SDS011;10573;50.936;6.978;2023-04-23T03:49:43;39.00;;;27.13;;
20824;SDS011;10573;50.936;6.978;2023-04-23T03:52:09;39.90;;;27.10;;
20824;SDS011;10573;50.936;6.978;2023-04-23T03:54:34;39.92;;;26.75;;
20824;SDS011;10573;50.936;6.978;2023-04-23T03:57:00;40.60;;;26.87;;
20824;SDS011;10573;50.936;6.978;2023-04-23T03:59:25;38.65;;;27.13;;
20824;SDS011;10573;50.936;6.978;2023-04-23T04:01:51;38.60;;;25.87;;
20824;SDS011;10573;50.936;6.978;2023-04-23T04:04:16;38.50;;;27.23;;
20824;SDS011;10573;50.936;6.978;2023-04-23T04:06:42;36.10;;;25.25;;
20824;SDS011;10573;50.936;6.978;2023-04-23T04:09:07;37.50;;;26.23;;
20824;SDS011;10573;50.936;6.978;2023-04-23T04:11:33;34.93;;;25.30;;
20824;SDS011;10573;50.936;6.978;2023-04-23T04:13:59;35.72;;;25.13;;
20824;SDS011;10573;50.936;6.978;2023-04-23T04:16:24;35.97;;;24.20;;
20824;SDS011;10573;50.936;6.978;2023-04-23T04:18:50;34.47;;;24.37;;
20824;SDS011;10573;50.936;6.978;2023-04-23T04:21:15;36.40;;;24.77;;
20824;SDS011;10573;50.936;6.978;2023-04-23T04:23:43;32.95;;;23.95;;
20824;SDS011;10573;50.936;6.978;2023-04-23T04:26:09;34.35;;;24.42;;
20824;SDS011;10573;50.936;6.978;2023-04-23T04:28:34;34.90;;;23.33;;
20824;SDS011;10573;50.936;6.978;2023-04-23T04:31:04;33.42;;;23.05;;
20824;SDS011;10573;50.936;6.978;2023-04-23T04:33:31;30.98;;;22.50;;
20824;SDS011;10573;50.936;6.978;2023-04-23T04:35:57;30.10;;;21.90;;
20824;SDS011;10573;50.936;6.978;2023-04-23T04:38:24;31.65;;;22.00;;
20824;SDS011;10573;50.936;6.978;2023-04-23T04:40:50;29.80;;;21.57;;
20824;SDS011;10573;50.936;6.978;2023-04-23T04:43:15;27.48;;;20.63;;
20824;SDS011;10573;50.936;6.978;2023-04-23T04:45:41;31.47;;;21.37;;
20824;SDS011;10573;50.936;6.978;2023-04-23T04:48:07;30.30;;;21.10;;
20824;SDS011;10573;50.936;6.978;2023-04-23T04:50:32;35.07;;;20.97;;
20824;SDS011;10573;50.936;6.978;2023-04-23T04:52:58;28.13;;;20.30;;
20824;SDS011;10573;50.936;6.978;2023-04-23T04:55:24;26.77;;;19.77;;
20824;SDS011;10573;50.936;6.978;2023-04-23T04:57:51;28.48;;;19.77;;
20824;SDS011;10573;50.936;6.978;2023-04-23T05:00:18;26.67;;;19.42;;
20824;SDS011;10573;50.936;6.978;2023-04-23T05:02:46;26.60;;;19.55;;
20824;SDS011;10573;50.936;6.978;2023-04-23T05:05:13;25.77;;;17.67;;
20824;SDS011;10573;50.936;6.978;2023-04-23T05:07:39;24.38;;;17.73;;
20824;SDS011;10573;50.936;6.978;2023-04-23T05:10:04;23.73;;;17.10;;
20824;SDS011;10573;50.936;6.978;2023-04-23T05:12:30;24.50;;;17.20;;
20824;SDS011;10573;50.936;6.978;2023-04-23T05:14:55;22.70;;;17.33;;
20824;SDS011;10573;50.936;6.978;2023-04-23T05:17:21;21.58;;;17.00;;
20824;SDS011;10573;50.936;6.978;2023-04-23T05:19:46;21.37;;;15.93;;
20824;SDS011;10573;50.936;6.978;2023-04-23T05:22:11;22.42;;;16.13;;
20824;SDS011;10573;50.936;6.978;2023-04-23T05:24:37;23.80;;;17.20;;
20824;SDS011;10573;50.936;6.978;2023-04-23T05:27:02;23.27;;;16.35;;
20824;SDS011;10573;50.936;6.978;2023-04-23T05:29:28;20.23;;;15.50;;
20824;SDS011;10573;50.936;6.978;2023-04-23T05:31:53;20.25;;;15.85;;
20824;SDS011;10573;50.936;6.978;2023-04-23T05:34:18;17.80;;;15.13;;
20824;SDS011;10573;50.936;6.978;2023-04-23T05:36:44;17.63;;;14.60;;
20824;SDS011;10573;50.936;6.978;2023-04-23T05:39:09;18.83;;;14.63;;
20824;SDS011;10573;50.936;6.978;2023-04-23T05:41:35;17.37;;;13.83;;
20824;SDS011;10573;50.936;6.978;2023-04-23T05:44:00;16.77;;;13.30;;
20824;SDS011;10573;50.936;6.978;2023-04-23T05:46:26;15.67;;;13.33;;
20824;SDS011;10573;50.936;6.978;2023-04-23T05:48:51;17.10;;;13.87;;
20824;SDS011;10573;50.936;6.978;2023-04-23T05:51:17;15.88;;;13.00;;
20824;SDS011;10573;50.936;6.978;2023-04-23T05:53:43;15.43;;;12.55;;
20824;SDS011;10573;50.936;6.978;2023-04-23T05:56:08;15.63;;;13.10;;
20824;SDS011;10573;50.936;6.978;2023-04-23T05:58:33;15.88;;;12.75;;
20824;SDS011;10573;50.936;6.978;2023-04-23T06:00:59;15.97;;;12.60;;
20824;SDS011;10573;50.936;6.978;2023-04-23T06:03:24;16.17;;;11.93;;
20824;SDS011;10573;50.936;6.978;2023-04-23T06:05:50;14.80;;;11.93;;
20824;SDS011;10573;50.936;6.978;2023-04-23T06:08:16;13.97;;;11.77;;
20824;SDS011;10573;50.936;6.978;2023-04-23T06:10:41;13.67;;;11.73;;
20824;SDS011;10573;50.936;6.978;2023-04-23T06:13:07;14.10;;;11.80;;
20824;SDS011;10573;50.936;6.978;2023-04-23T06:15:32;12.90;;;11.50;;
20824;SDS011;10573;50.936;6.978;2023-04-23T06:17:58;13.70;;;11.90;;
20824;SDS011;10573;50.936;6.978;2023-04-23T06:20:24;15.40;;;11.82;;
20824;SDS011;10573;50.936;6.978;2023-04-23T06:22:49;14.88;;;11.63;;
20824;SDS011;10573;50.936;6.978;2023-04-23T06:25:15;14.23;;;11.77;;
20824;SDS011;10573;50.936;6.978;2023-04-23T06:27:40;14.43;;;11.00;;
20824;SDS011;10573;50.936;6.978;2023-04-23T06:30:06;13.20;;;10.30;;
20824;SDS011;10573;50.936;6.978;2023-04-23T06:32:32;12.93;;;10.70;;
20824;SDS011;10573;50.936;6.978;2023-04-23T06:34:57;11.80;;;10.30;;
20824;SDS011;10573;50.936;6.978;2023-04-23T06:37:22;12.40;;;9.60;;
20824;SDS011;10573;50.936;6.978;2023-04-23T06:39:50;10.90;;;9.80;;
20824;SDS011;10573;50.936;6.978;2023-04-23T06:42:15;10.57;;;9.47;;
20824;SDS011;10573;50.936;6.978;2023-04-23T06:44:42;11.57;;;9.38;;
20824;SDS011;10573;50.936;6.978;2023-04-23T06:47:07;11.77;;;9.18;;
20824;SDS011;10573;50.936;6.978;2023-04-23T06:49:33;15.40;;;8.80;;
20824;SDS011;10573;50.936;6.978;2023-04-23T06:51:58;10.63;;;8.93;;
20824;SDS011;10573;50.936;6.978;2023-04-23T06:54:24;10.67;;;8.57;;
20824;SDS011;10573;50.936;6.978;2023-04-23T06:56:49;9.75;;;8.48;;
20824;SDS011;10573;50.936;6.978;2023-04-23T06:59:15;10.63;;;8.18;;
20824;SDS011;10573;50.936;6.978;2023-04-23T07:01:41;9.77;;;8.20;;
20824;SDS011;10573;50.936;6.978;2023-04-23T07:04:06;8.80;;;7.23;;
20824;SDS011;10573;50.936;6.978;2023-04-23T07:06:32;8.10;;;7.27;;
20824;SDS011;10573;50.936;6.978;2023-04-23T07:08:58;8.10;;;7.30;;
20824;SDS011;10573;50.936;6.978;2023-04-23T07:11:24;7.43;;;6.37;;
20824;SDS011;10573;50.936;6.978;2023-04-23T07:13:50;9.15;;;6.75;;
20824;SDS011;10573;50.936;6.978;2023-04-23T07:16:15;6.77;;;6.00;;
20824;SDS011;10573;50.936;6.978;2023-04-23T07:18:40;7.67;;;5.33;;
20824;SDS011;10573;50.936;6.978;2023-04-23T07:21:06;6.27;;;5.40;;
20824;SDS011;10573;50.936;6.978;2023-04-23T07:23:31;6.47;;;4.90;;
20824;SDS011;10573;50.936;6.978;2023-04-23T07:25:57;6.30;;;4.83;;
20824;SDS011;10573;50.936;6.978;2023-04-23T07:28:22;6.60;;;4.37;;
20824;SDS011;10573;50.936;6.978;2023-04-23T07:30:48;5.10;;;4.40;;
20824;SDS011;10573;50.936;6.978;2023-04-23T07:33:14;5.07;;;4.28;;
20824;SDS011;10573;50.936;6.978;2023-04-23T07:35:39;4.57;;;3.83;;
20824;SDS011;10573;50.936;6.978;2023-04-23T07:38:05;4.80;;;3.77;;
20824;SDS011;10573;50.936;6.978;2023-04-23T07:40:31;4.95;;;3.90;;
20824;SDS011;10573;50.936;6.978;2023-04-23T07:42:56;4.77;;;3.90;;
20824;SDS011;10573;50.936;6.978;2023-04-23T07:45:23;4.90;;;3.83;;
20824;SDS011;10573;50.936;6.978;2023-04-23T07:47:48;5.70;;;3.77;;
20824;SDS011;10573;50.936;6.978;2023-04-23T07:50:14;4.20;;;3.40;;
20824;SDS011;10573;50.936;6.978;2023-04-23T07:52:40;6.80;;;3.45;;
20824;SDS011;10573;50.936;6.978;2023-04-23T07:55:05;4.00;;;3.40;;
20824;SDS011;10573;50.936;6.978;2023-04-23T07:57:32;4.75;;;3.40;;
20824;SDS011;10573;50.936;6.978;2023-04-23T07:59:57;4.00;;;3.10;;
20824;SDS011;10573;50.936;6.978;2023-04-23T08:02:23;4.43;;;2.95;;
20824;SDS011;10573;50.936;6.978;2023-04-23T08:04:50;7.28;;;3.03;;
20824;SDS011;10573;50.936;6.978;2023-04-23T08:07:17;3.08;;;2.30;;
20824;SDS011;10573;50.936;6.978;2023-04-23T08:09:42;3.85;;;2.50;;
20824;SDS011;10573;50.936;6.978;2023-04-23T08:12:08;3.40;;;2.30;;
20824;SDS011;10573;50.936;6.978;2023-04-23T08:14:33;3.97;;;2.50;;
20824;SDS011;10573;50.936;6.978;2023-04-23T08:16:58;3.20;;;2.70;;
20824;SDS011;10573;50.936;6.978;2023-04-23T08:19:24;4.30;;;2.77;;
20824;SDS011;10573;50.936;6.978;2023-04-23T08:21:50;3.53;;;2.38;;
20824;SDS011;10573;50.936;6.978;2023-04-23T08:24:16;6.20;;;2.63;;
20824;SDS011;10573;50.936;6.978;2023-04-23T08:26:42;4.13;;;2.80;;
20824;SDS011;10573;50.936;6.978;2023-04-23T08:29:07;4.22;;;2.80;;
20824;SDS011;10573;50.936;6.978;2023-04-23T08:31:32;3.03;;;2.40;;
20824;SDS011;10573;50.936;6.978;2023-04-23T08:33:58;5.80;;;2.40;;
20824;SDS011;10573;50.936;6.978;2023-04-23T08:36:24;6.15;;;2.65;;
20824;SDS011;10573;50.936;6.978;2023-04-23T08:38:50;4.22;;;2.50;;
20824;SDS011;10573;50.936;6.978;2023-04-23T08:41:17;2.80;;;2.10;;
20824;SDS011;10573;50.936;6.978;2023-04-23T08:43:54;3.65;;;2.38;;
20824;SDS011;10573;50.936;6.978;2023-04-23T08:46:30;3.75;;;2.47;;
20824;SDS011;10573;50.936;6.978;2023-04-23T08:48:57;7.55;;;3.42;;
20824;SDS011;10573;50.936;6.978;2023-04-23T08:51:23;3.60;;;2.30;;
20824;SDS011;10573;50.936;6.978;2023-04-23T08:53:51;4.10;;;1.90;;
20824;SDS011;10573;50.936;6.978;2023-04-23T08:56:20;3.10;;;1.90;;
20824;SDS011;10573;50.936;6.978;2023-04-23T08:58:46;3.22;;;2.28;;
20824;SDS011;10573;50.936;6.978;2023-04-23T09:01:14;3.55;;;2.03;;
20824;SDS011;10573;50.936;6.978;2023-04-23T09:03:40;11.73;;;7.25;;
20824;SDS011;10573;50.936;6.978;2023-04-23T09:06:06;5.18;;;3.47;;
20824;SDS011;10573;50.936;6.978;2023-04-23T09:08:32;5.13;;;3.60;;
20824;SDS011;10573;50.936;6.978;2023-04-23T09:10:59;3.92;;;2.00;;
20824;SDS011;10573;50.936;6.978;2023-04-23T09:13:26;3.03;;;1.85;;
20824;SDS011;10573;50.936;6.978;2023-04-23T09:15:54;3.05;;;1.90;;
20824;SDS011;10573;50.936;6.978;2023-04-23T09:18:19;4.83;;;1.90;;
20824;SDS011;10573;50.936;6.978;2023-04-23T09:20:45;4.53;;;1.95;;
20824;SDS011;10573;50.936;6.978;2023-04-23T09:23:12;3.80;;;1.60;;
20824;SDS011;10573;50.936;6.978;2023-04-23T09:25:39;4.90;;;1.70;;
20824;SDS011;10573;50.936;6.978;2023-04-23T09:28:05;3.03;;;1.83;;
20824;SDS011;10573;50.936;6.978;2023-04-23T09:30:37;5.00;;;1.73;;
20824;SDS011;10573;50.936;6.978;2023-04-23T09:33:10;5.85;;;1.60;;
20824;SDS011;10573;50.936;6.978;2023-04-23T09:35:36;4.25;;;1.90;;
20824;SDS011;10573;50.936;6.978;2023-04-23T09:38:02;2.95;;;1.38;;
20824;SDS011;10573;50.936;6.978;2023-04-23T09:40:31;7.05;;;1.30;;
20824;SDS011;10573;50.936;6.978;2023-04-23T09:42:57;3.58;;;1.27;;
20824;SDS011;10573;50.936;6.978;2023-04-23T09:45:23;4.10;;;1.43;;
20824;SDS011;10573;50.936;6.978;2023-04-23T09:47:52;4.22;;;1.30;;
20824;SDS011;10573;50.936;6.978;2023-04-23T09:50:19;3.75;;;1.50;;
20824;SDS011;10573;50.936;6.978;2023-04-23T09:52:56;3.75;;;1.20;;
20824;SDS011;10573;50.936;6.978;2023-04-23T09:55:34;5.70;;;1.57;;
20824;SDS011;10573;50.936;6.978;2023-04-23T09:58:12;4.35;;;1.83;;
20824;SDS011;10573;50.936;6.978;2023-04-23T10:00:39;4.53;;;1.48;;
20824;SDS011;10573;50.936;6.978;2023-04-23T10:03:05;2.58;;;1.38;;
20824;SDS011;10573;50.936;6.978;2023-04-23T10:05:36;3.40;;;1.20;;
20824;SDS011;10573;50.936;6.978;2023-04-23T10:08:05;2.53;;;1.20;;
20824;SDS011;10573;50.936;6.978;2023-04-23T10:10:30;2.60;;;1.13;;
20824;SDS011;10573;50.936;6.978;2023-04-23T10:12:58;5.30;;;1.40;;
20824;SDS011;10573;50.936;6.978;2023-04-23T10:15:24;2.45;;;1.30;;
20824;SDS011;10573;50.936;6.978;2023-04-23T10:17:51;3.28;;;1.10;;
20824;SDS011;10573;50.936;6.978;2023-04-23T10:20:17;3.70;;;1.13;;
20824;SDS011;10573;50.936;6.978;2023-04-23T10:22:45;1.80;;;1.00;;
20824;SDS011;10573;50.936;6.978;2023-04-23T10:25:11;3.13;;;1.40;;
20824;SDS011;10573;50.936;6.978;2023-04-23T10:27:38;3.35;;;1.15;;
20824;SDS011;10573;50.936;6.978;2023-04-23T10:30:08;3.33;;;1.13;;
20824;SDS011;10573;50.936;6.978;2023-04-23T10:32:35;2.50;;;1.27;;
20824;SDS011;10573;50.936;6.978;2023-04-23T10:35:03;2.92;;;1.10;;
20824;SDS011;10573;50.936;6.978;2023-04-23T10:37:29;2.87;;;1.43;;
20824;SDS011;10573;50.936;6.978;2023-04-23T10:39:57;1.90;;;0.93;;
20824;SDS011;10573;50.936;6.978;2023-04-23T10:42:28;4.53;;;0.90;;
20824;SDS011;10573;50.936;6.978;2023-04-23T10:44:54;5.07;;;1.02;;
20824;SDS011;10573;50.936;6.978;2023-04-23T10:47:21;1.60;;;0.80;;
20824;SDS011;10573;50.936;6.978;2023-04-23T10:49:47;2.80;;;1.10;;
20824;SDS011;10573;50.936;6.978;2023-04-23T10:52:13;2.37;;;1.00;;
20824;SDS011;10573;50.936;6.978;2023-04-23T10:54:43;3.97;;;0.85;;
20824;SDS011;10573;50.936;6.978;2023-04-23T10:57:13;1.85;;;0.90;;
20824;SDS011;10573;50.936;6.978;2023-04-23T10:59:39;2.77;;;1.00;;
20824;SDS011;10573;50.936;6.978;2023-04-23T11:02:16;2.88;;;0.80;;
20824;SDS011;10573;50.936;6.978;2023-04-23T11:04:46;3.08;;;0.90;;
20824;SDS011;10573;50.936;6.978;2023-04-23T11:07:18;4.15;;;0.90;;
20824;SDS011;10573;50.936;6.978;2023-04-23T11:09:47;3.08;;;0.80;;
20824;SDS011;10573;50.936;6.978;2023-04-23T11:14:48;2.95;;;0.80;;
20824;SDS011;10573;50.936;6.978;2023-04-23T11:17:15;2.30;;;0.80;;
20824;SDS011;10573;50.936;6.978;2023-04-23T11:20:05;3.30;;;0.70;;
20824;SDS011;10573;50.936;6.978;2023-04-23T11:25:10;4.60;;;0.73;;
20824;SDS011;10573;50.936;6.978;2023-04-23T11:27:38;3.92;;;0.93;;
20824;SDS011;10573;50.936;6.978;2023-04-23T11:30:08;3.88;;;1.08;;
20824;SDS011;10573;50.936;6.978;2023-04-23T11:32:37;1.52;;;0.88;;
20824;SDS011;10573;50.936;6.978;2023-04-23T11:35:03;3.83;;;1.00;;
20824;SDS011;10573;50.936;6.978;2023-04-23T11:37:29;1.80;;;0.80;;
20824;SDS011;10573;50.936;6.978;2023-04-23T11:39:55;5.20;;;0.80;;
20824;SDS011;10573;50.936;6.978;2023-04-23T11:42:20;3.83;;;0.87;;
20824;SDS011;10573;50.936;6.978;2023-04-23T11:44:46;5.07;;;0.83;;
20824;SDS011;10573;50.936;6.978;2023-04-23T11:47:12;3.70;;;0.90;;
20824;SDS011;10573;50.936;6.978;2023-04-23T11:49:40;2.97;;;0.80;;
20824;SDS011;10573;50.936;6.978;2023-04-23T11:52:07;3.08;;;1.00;;
20824;SDS011;10573;50.936;6.978;2023-04-23T11:54:33;3.40;;;0.75;;
20824;SDS011;10573;50.936;6.978;2023-04-23T11:56:59;1.53;;;0.80;;
20824;SDS011;10573;50.936;6.978;2023-04-23T11:59:28;3.60;;;0.90;;
20824;SDS011;10573;50.936;6.978;2023-04-23T12:01:55;2.45;;;0.93;;
20824;SDS011;10573;50.936;6.978;2023-04-23T12:04:23;2.40;;;0.77;;
20824;SDS011;10573;50.936;6.978;2023-04-23T12:06:50;2.67;;;0.80;;
20824;SDS011;10573;50.936;6.978;2023-04-23T12:09:19;1.65;;;0.60;;
20824;SDS011;10573;50.936;6.978;2023-04-23T12:11:46;2.60;;;0.70;;
20824;SDS011;10573;50.936;6.978;2023-04-23T12:14:14;3.08;;;0.57;;
20824;SDS011;10573;50.936;6.978;2023-04-23T12:16:42;5.47;;;0.68;;
20824;SDS011;10573;50.936;6.978;2023-04-23T12:19:11;1.73;;;0.63;;
20824;SDS011;10573;50.936;6.978;2023-04-23T12:21:48;4.38;;;0.68;;
20824;SDS011;10573;50.936;6.978;2023-04-23T12:24:23;3.42;;;0.68;;
20824;SDS011;10573;50.936;6.978;2023-04-23T12:26:52;4.25;;;1.13;;
20824;SDS011;10573;50.936;6.978;2023-04-23T12:29:22;3.33;;;0.57;;
20824;SDS011;10573;50.936;6.978;2023-04-23T12:31:50;4.10;;;0.75;;
20824;SDS011;10573;50.936;6.978;2023-04-23T12:34:17;1.40;;;0.50;;
20824;SDS011;10573;50.936;6.978;2023-04-23T12:36:46;2.25;;;0.45;;
20824;SDS011;10573;50.936;6.978;2023-04-23T12:39:20;1.50;;;0.50;;
20824;SDS011;10573;50.936;6.978;2023-04-23T12:41:47;2.58;;;0.60;;
20824;SDS011;10573;50.936;6.978;2023-04-23T12:44:14;3.70;;;0.55;;
20824;SDS011;10573;50.936;6.978;2023-04-23T12:46:40;4.57;;;0.65;;
20824;SDS011;10573;50.936;6.978;2023-04-23T12:49:05;1.90;;;0.68;;
